Nearby Weather Observations


KTIP - Rantoul, Illinois, USA
Distance from station: ENE 12mi, 19km
Updated: Wed, 06-Jul-2022 8:32pm CDT
unable to load KTIP data RC=
unable to load KTIP data RC=
 
KCMI - Champaign/Urbana, Illinois, USA
Distance from station: SSE 14mi, 22km
Updated: Wed, 06-Jul-2022 7:53pm CDT
Clear
Clear
 Wind from NE
Wind: NE 12 mph , 19 km/h
Temperature: 82°F , 28°C
Heat Index: 87°F , 31°C
Dew Point: 73°F , 23°C
Humidity: 74%
Barometer: 29.96 inHg , 1014.6 hPa
Clouds: Clear
Visibility: 10 miles , 16 km
2022/07/07 00:53 KCMI 070053Z 04010KT 10SM CLR 28/23 A2996 RMK AO2 SLP139 T02830228
 
KBMI - Bloomington/Norm, Illinois, USA
Distance from station: WNW 34mi, 55km
Updated: Wed, 06-Jul-2022 8:21pm CDT
Mostly cloudy
Mostly cloudy
 Wind from NE
Wind: NE 6 mph , 9 km/h
Temperature: 79°F , 26°C
Dew Point: 73°F , 23°C
Humidity: 84%
Barometer: 29.98 inHg , 1015.2 hPa
Clouds: Mostly cloudy
Visibility: 10 miles , 16 km
Cloud details: Mostly cloudy 2700 ft
2022/07/07 01:21 KBMI 070121Z 05005KT 10SM BKN027 26/23 A2998 RMK AO2
KDEC - Decatur, Illinois, USA
Distance from station: SW 37mi, 60km
Updated: Wed, 06-Jul-2022 8:32pm CDT
unable to load KDEC data RC=
unable to load KDEC data RC=
 
 
KDNV - Danville, Illinois, USA
Distance from station: E 40mi, 65km
Updated: Wed, 06-Jul-2022 8:15pm CDT
Clear
Clear
 Wind from N
Wind: N 5 mph , 7 km/h
Temperature: 79°F , 26°C
Dew Point: 70°F , 21°C
Humidity: 74%
Barometer: 29.96 inHg , 1014.6 hPa
Clouds: Clear
Visibility: 10 miles , 16 km
2022/07/07 01:15 KDNV 070115Z AUTO 01004KT 10SM CLR 26/21 A2996 RMK AO2 T02580212
KAAA - Lincoln, Illinois, USA
Distance from station: W 52mi, 83km
Updated: Wed, 06-Jul-2022 8:32pm CDT
unable to load KAAA data RC=
unable to load KAAA data RC=
 
 
KMTO - Mattoon/Charlest, Illinois, USA
Distance from station: S 52mi, 84km
Updated: Wed, 06-Jul-2022 8:32pm CDT
unable to load KMTO data RC=
unable to load KMTO data RC=
 
KSPI - Springfield, Illinois, USA
Distance from station: WSW 74mi, 120km
Updated: Wed, 06-Jul-2022 8:32pm CDT
unable to load KSPI data RC=
unable to load KSPI data RC=
 
 
KLAF - Lafayette, Indiana, USA
Distance from station: E 76mi, 123km
Updated: Wed, 06-Jul-2022 8:32pm CDT
unable to load KLAF data RC=
unable to load KLAF data RC=
 
KPIA - Peoria, Illinois, USA
Distance from station: WNW 76mi, 123km
Updated: Wed, 06-Jul-2022 8:32pm CDT
unable to load KPIA data RC=
unable to load KPIA data RC=
 
 
KHUF - Terre Haute, Indiana, USA
Distance from station: SE 77mi, 124km
Updated: Wed, 06-Jul-2022 8:32pm CDT
unable to load KHUF data RC=
unable to load KHUF data RC=
 
K1H2 - Effingham, Illinois, USA
Distance from station: S 80mi, 129km
Updated: Wed, 06-Jul-2022 8:15pm CDT
Clear
Clear
 Wind from calm
Wind: Calm
Temperature: 81°F , 27°C
Heat Index: 87°F , 31°C
Dew Point: 75°F , 24°C
Humidity: 84%
Barometer: 29.97 inHg , 1014.9 hPa
Clouds: Clear
Visibility: 10 miles , 16 km
2022/07/07 01:15 K1H2 070115Z AUTO 00000KT 10SM CLR 27/24 A2997 RMK AO2 LTG DSNT NW T02690240
 
KIND - Indianapolis, Indiana, USA
Distance from station: ESE 117mi, 133km
Updated: Wed, 06-Jul-2022 8:32pm CDT
unable to load KIND data RC=
unable to load KIND data RC=
 
KORD - Chicago O'hare, Illinois, USA
Distance from station: N 126mi, 203km
Updated: Wed, 06-Jul-2022 8:32pm CDT
unable to load KORD data RC=
unable to load KORD data RC=
 
 
KSTL - St. Louis, Missouri, USA
Distance from station: SW 150mi, 185km
Updated: Wed, 06-Jul-2022 7:51pm CDT
Mostly cloudy
Mostly cloudy
 Wind from NE
Wind: NE 9 mph , 15 km/h
Temperature: 88°F , 31°C
Heat Index: 96°F , 36°C
Dew Point: 73°F , 23°C
Humidity: 62%
Barometer: 29.94 inHg , 1013.9 hPa
Clouds: Mostly cloudy
Visibility: 10 miles , 16 km
Cloud details: Few Clouds 5500 ft
Few Clouds 9500 ft
Partly cloudy 18000 ft
Mostly cloudy 25000 ft
2022/07/07 00:51 KSTL 070051Z 04008KT 10SM FEW055 FEW095 SCT180 BKN250 31/23 A2994 RMK AO2 SLP123 CB DSNT NE MOV SE CB DSNT SW STRNY T03060233 $